Time;durP1;ratioP1;P1;durP2;ratioP2;P2;SDS_P1;SDS_P2;PMS_P1;PMS_P2;Temp;Humidity;BMP_temperature;BMP_pressure;BME280_temperature;BME280_humidity;BME280_pressure;Samples;Min_cycle;Max_cycle;Signal;HPM_P1;HPM_P2
2023/04/19 00:04:30;;;;;;;2.88;1.92;;;;;;;9.74;100.00;94362.25;10389782;28;20138;-69
2023/04/19 00:09:30;;;;;;;2.17;1.30;;;;;;;9.56;100.00;94354.84;10410342;28;20479;-69
2023/04/19 00:14:31;;;;;;;3.45;1.67;;;;;;;9.67;100.00;94348.34;10424175;28;20020;-69
2023/04/19 00:19:31;;;;;;;2.28;1.85;;;;;;;9.70;100.00;94347.78;10421566;28;20045;-69
2023/04/19 00:24:32;;;;;;;3.05;1.63;;;;;;;9.68;100.00;94343.78;10412338;28;20090;-69
2023/04/19 00:29:32;;;;;;;1.30;1.20;;;;;;;9.73;100.00;94341.88;10407343;28;20615;-69
2023/04/19 00:34:33;;;;;;;1.90;1.33;;;;;;;9.65;100.00;94339.75;10407408;28;20400;-70
2023/04/19 00:39:34;;;;;;;2.42;1.30;;;;;;;9.74;100.00;94345.38;10411534;28;20039;-70
2023/04/19 00:44:34;;;;;;;2.53;1.73;;;;;;;9.76;100.00;94335.16;10410254;28;20017;-70
2023/04/19 00:49:35;;;;;;;3.78;1.75;;;;;;;9.78;100.00;94334.88;10391370;28;20155;-70
2023/04/19 00:54:36;;;;;;;2.77;2.00;;;;;;;9.77;100.00;94331.41;10408814;28;20036;-70
2023/04/19 00:59:37;;;;;;;2.95;1.77;;;;;;;9.56;100.00;94326.13;10420540;28;20362;-70
2023/04/19 01:04:38;;;;;;;7.30;2.67;;;;;;;9.36;100.00;94312.81;10423641;28;20033;-70
2023/04/19 01:09:40;;;;;;;2.63;2.03;;;;;;;9.46;100.00;94317.34;10423883;28;20488;-70
2023/04/19 01:14:41;;;;;;;6.55;1.90;;;;;;;9.52;100.00;94316.25;10428391;28;20732;-70
2023/04/19 01:19:41;;;;;;;2.70;1.60;;;;;;;9.61;100.00;94319.94;10430910;28;20120;-70
2023/04/19 01:24:42;;;;;;;4.83;2.47;;;;;;;9.66;100.00;94319.13;10430968;28;20029;-70
2023/04/19 01:29:42;;;;;;;4.33;1.87;;;;;;;9.67;100.00;94316.16;10429810;28;20350;-70
2023/04/19 01:34:43;;;;;;;2.05;1.38;;;;;;;9.67;100.00;94315.34;10430638;28;20733;-70
2023/04/19 01:39:43;;;;;;;6.30;1.38;;;;;;;9.65;100.00;94315.63;10430569;28;20487;-70
2023/04/19 01:44:44;;;;;;;2.00;1.60;;;;;;;9.69;100.00;94307.81;10421650;28;20107;-70
2023/04/19 01:49:46;;;;;;;6.38;2.10;;;;;;;9.69;100.00;94319.34;10430032;28;20792;-70
2023/04/19 01:54:47;;;;;;;2.88;1.25;;;;;;;9.66;100.00;94308.38;10430169;28;20032;-70
2023/04/19 01:59:47;;;;;;;2.10;1.33;;;;;;;9.53;100.00;94299.88;10429470;28;20087;-71
2023/04/19 02:04:48;;;;;;;2.55;1.42;;;;;;;9.45;100.00;94302.34;10427930;28;20322;-70
2023/04/19 02:09:51;;;;;;;2.75;1.73;;;;;;;9.21;100.00;94300.31;10428869;28;20036;-70
2023/04/19 02:14:51;;;;;;;2.75;2.00;;;;;;;8.80;100.00;94308.47;10433113;28;20025;-69
2023/04/19 02:19:51;;;;;;;7.28;2.22;;;;;;;8.54;100.00;94306.66;10428201;28;20033;-70
2023/04/19 02:24:52;;;;;;;5.15;2.47;;;;;;;8.53;100.00;94304.25;10428392;28;20029;-69
2023/04/19 02:29:53;;;;;;;3.20;2.17;;;;;;;8.35;100.00;94313.63;10428565;28;20033;-71
2023/04/19 02:34:53;;;;;;;4.80;2.20;;;;;;;8.48;100.00;94315.75;10428137;28;20028;-71
2023/04/19 02:39:54;;;;;;;2.95;1.98;;;;;;;8.59;100.00;94318.44;10428374;28;20409;-71
2023/04/19 02:44:54;;;;;;;2.75;2.00;;;;;;;8.80;100.00;94313.84;10427617;28;20078;-68
2023/04/19 02:49:55;;;;;;;4.15;2.25;;;;;;;8.89;100.00;94306.84;10427464;28;20029;-69
2023/04/19 02:54:55;;;;;;;3.95;2.55;;;;;;;9.01;100.00;94309.22;10427658;28;20487;-69
2023/04/19 02:59:56;;;;;;;4.53;2.60;;;;;;;8.96;100.00;94312.72;10426942;28;20104;-70
2023/04/19 03:04:56;;;;;;;4.70;3.15;;;;;;;8.60;100.00;94323.53;10427429;28;20285;-69
2023/04/19 03:09:57;;;;;;;7.63;3.33;;;;;;;8.24;100.00;94312.03;10427067;28;20074;-69
2023/04/19 03:14:57;;;;;;;4.57;3.20;;;;;;;7.95;100.00;94304.50;10432508;28;20024;-69
2023/04/19 03:19:58;;;;;;;9.35;3.97;;;;;;;7.69;100.00;94315.19;10467857;28;20045;-69
2023/04/19 03:24:58;;;;;;;5.60;3.67;;;;;;;7.76;100.00;94317.59;10426168;28;20033;-70
2023/04/19 03:29:58;;;;;;;8.93;3.73;;;;;;;7.76;100.00;94321.09;10426544;28;20033;-70
2023/04/19 03:34:59;;;;;;;7.17;4.00;;;;;;;7.76;100.00;94309.56;10426089;28;20263;-70
2023/04/19 03:39:59;;;;;;;6.90;4.15;;;;;;;7.69;100.00;94313.31;10425742;28;20263;-70
2023/04/19 03:45:00;;;;;;;7.43;4.20;;;;;;;7.61;100.00;94316.50;10436869;28;20086;-71
2023/04/19 03:50:00;;;;;;;7.03;4.07;;;;;;;7.59;100.00;94312.50;10436746;28;20033;-69
2023/04/19 03:55:01;;;;;;;8.65;4.03;;;;;;;7.76;100.00;94304.22;10424530;28;20094;-71
2023/04/19 04:00:05;;;;;;;6.22;4.47;;;;;;;7.80;100.00;94314.16;10422493;28;20025;-69
2023/04/19 04:05:06;;;;;;;11.45;4.65;;;;;;;7.76;100.00;94312.25;10414216;28;20040;-69
2023/04/19 04:10:07;;;;;;;8.25;3.58;;;;;;;7.86;100.00;94315.75;10451124;28;20029;-72
2023/04/19 04:15:08;;;;;;;7.07;3.92;;;;;;;7.86;100.00;94322.97;10428552;28;20169;-73
2023/04/19 04:20:12;;;;;;;7.20;4.43;;;;;;;7.98;100.00;94317.34;10416873;28;20492;-73
2023/04/19 04:25:14;;;;;;;10.65;4.97;;;;;;;7.94;100.00;94322.47;10424499;28;20460;-71
2023/04/19 04:30:15;;;;;;;11.85;5.25;;;;;;;8.14;100.00;94328.88;10426849;28;20131;-73
2023/04/19 04:35:16;;;;;;;11.32;4.32;;;;;;;8.21;100.00;94324.84;10430344;28;20019;-73
2023/04/19 04:40:20;;;;;;;7.75;4.55;;;;;;;8.34;100.00;94330.75;10425595;28;20021;-74
2023/04/19 04:45:21;;;;;;;6.53;4.38;;;;;;;8.50;100.00;94328.91;10411758;28;20123;-73
2023/04/19 04:50:21;;;;;;;6.95;4.75;;;;;;;8.50;100.00;94321.66;10438535;28;20592;-73
2023/04/19 04:55:22;;;;;;;6.95;4.35;;;;;;;8.60;100.00;94328.88;10435336;28;20630;-73
2023/04/19 05:00:23;;;;;;;6.45;3.53;;;;;;;8.61;100.00;94330.50;10442784;28;20016;-72
2023/04/19 05:05:23;;;;;;;8.73;4.03;;;;;;;8.82;100.00;94331.25;10433935;28;20080;-72
2023/04/19 05:10:24;;;;;;;7.07;4.05;;;;;;;8.98;100.00;94332.00;10430424;28;20028;-72
2023/04/19 05:15:24;;;;;;;11.82;5.10;;;;;;;9.11;100.00;94324.47;10440873;28;20107;-74
2023/04/19 05:20:25;;;;;;;7.20;4.50;;;;;;;9.26;100.00;94321.72;10442909;28;20017;-73
2023/04/19 05:25:26;;;;;;;11.63;4.38;;;;;;;9.48;100.00;94323.25;10441433;28;20036;-73
2023/04/19 05:30:26;;;;;;;7.57;3.95;;;;;;;9.50;100.00;94326.44;10432813;28;20400;-73
2023/04/19 05:35:27;;;;;;;7.00;4.68;;;;;;;9.70;100.00;94336.28;10441087;28;20032;-74
2023/04/19 05:40:28;;;;;;;9.20;3.90;;;;;;;9.74;100.00;94335.44;10436215;28;20017;-73
2023/04/19 05:45:28;;;;;;;5.68;3.67;;;;;;;9.54;100.00;94322.13;10435341;28;20652;-74
2023/04/19 05:50:29;;;;;;;8.43;4.43;;;;;;;9.02;100.00;94333.06;10439754;28;20086;-73
2023/04/19 05:55:29;;;;;;;6.07;4.18;;;;;;;8.96;100.00;94334.16;10432770;28;20271;-73
2023/04/19 06:00:31;;;;;;;9.68;5.25;;;;;;;8.83;100.00;94342.75;10437167;28;20013;-73
2023/04/19 06:05:32;;;;;;;7.18;4.70;;;;;;;8.63;100.00;94344.41;10430306;28;20075;-73
2023/04/19 06:10:33;;;;;;;10.45;4.70;;;;;;;8.68;100.00;94343.63;10416712;28;20503;-73
2023/04/19 06:15:33;;;;;;;8.52;4.35;;;;;;;9.22;100.00;94348.28;10439416;28;20479;-73
2023/04/19 06:20:38;;;;;;;8.45;5.50;;;;;;;9.16;100.00;94343.22;10404417;28;20079;-73
2023/04/19 06:25:39;;;;;;;12.43;5.32;;;;;;;9.44;100.00;94343.63;10438332;28;20816;-73
2023/04/19 06:30:40;;;;;;;12.27;6.00;;;;;;;9.98;100.00;94340.13;10436738;28;20029;-72
2023/04/19 06:35:40;;;;;;;7.88;5.15;;;;;;;10.04;100.00;94333.63;10435529;28;20474;-72
2023/04/19 06:40:41;;;;;;;9.03;4.63;;;;;;;9.63;100.00;94339.25;10440288;28;20103;-73
2023/04/19 06:45:41;;;;;;;6.97;4.20;;;;;;;9.92;100.00;94343.91;10435965;28;20583;-73
2023/04/19 06:50:42;;;;;;;6.97;4.00;;;;;;;10.47;100.00;94345.69;10432350;28;20021;-73
2023/04/19 06:55:43;;;;;;;7.53;4.25;;;;;;;10.23;100.00;94341.81;10433108;28;20112;-73
2023/04/19 07:00:44;;;;;;;7.32;4.07;;;;;;;10.35;100.00;94352.22;10436253;28;20025;-72
2023/04/19 07:05:44;;;;;;;6.35;3.85;;;;;;;10.59;100.00;94354.16;10436685;28;20031;-73
2023/04/19 07:10:45;;;;;;;4.97;3.45;;;;;;;10.89;100.00;94353.09;10421085;28;20027;-72
2023/04/19 07:15:45;;;;;;;7.78;3.75;;;;;;;11.18;100.00;94351.47;10435783;28;20051;-73
2023/04/19 07:20:47;;;;;;;7.53;4.10;;;;;;;11.40;100.00;94348.22;10432430;28;20020;-72
2023/04/19 07:25:47;;;;;;;9.02;5.30;;;;;;;11.98;100.00;94349.94;10438795;28;20769;-73
2023/04/19 07:30:48;;;;;;;18.50;16.70;;;;;;;12.36;100.00;94355.28;10438479;28;20029;-73
2023/04/19 07:35:48;;;;;;;10.60;5.03;;;;;;;13.01;100.00;94352.88;10441093;28;20407;-72
2023/04/19 07:40:49;;;;;;;10.80;6.07;;;;;;;12.65;100.00;94348.91;10436524;28;20639;-73
2023/04/19 07:45:55;;;;;;;14.27;5.53;;;;;;;12.46;100.00;94351.63;10432722;28;20285;-74
2023/04/19 07:50:55;;;;;;;8.05;4.45;;;;;;;12.78;100.00;94348.16;10436327;28;20024;-73
2023/04/19 07:55:56;;;;;;;6.60;3.10;;;;;;;12.11;100.00;94346.53;10441910;28;20138;-75
2023/04/19 08:00:56;;;;;;;6.10;3.00;;;;;;;12.85;100.00;94349.66;10426106;28;20275;-74
2023/04/19 08:05:57;;;;;;;11.55;5.20;;;;;;;12.89;100.00;94353.34;10432869;28;20813;-73
2023/04/19 08:11:00;;;;;;;7.55;4.25;;;;;;;12.41;100.00;94352.53;10422851;28;20028;-72
2023/04/19 08:16:01;;;;;;;7.47;4.20;;;;;;;12.14;100.00;94348.63;10440440;28;20045;-73
2023/04/19 08:21:01;;;;;;;13.63;3.57;;;;;;;12.92;100.00;94352.75;10433006;28;20020;-73
2023/04/19 08:26:02;;;;;;;4.40;2.90;;;;;;;12.90;100.00;94349.56;10446252;28;20275;-73
2023/04/19 08:31:06;;;;;;;10.43;3.58;;;;;;;13.45;100.00;94348.81;10436174;28;20020;-73
2023/04/19 08:36:07;;;;;;;12.88;3.67;;;;;;;13.54;100.00;94346.25;10435126;28;20458;-73
2023/04/19 08:41:11;;;;;;;9.70;4.65;;;;;;;13.79;100.00;94340.28;10443733;28;20104;-73
2023/04/19 08:46:12;;;;;;;9.07;6.05;;;;;;;13.91;100.00;94334.38;10443236;28;20419;-72
2023/04/19 08:51:15;;;;;;;5.85;2.70;;;;;;;14.12;100.00;94329.31;10435859;28;20036;-73
2023/04/19 08:56:17;;;;;;;9.88;3.45;;;;;;;14.50;100.00;94326.25;10443961;28;20027;-73
2023/04/19 09:01:17;;;;;;;9.75;4.80;;;;;;;14.93;100.00;94330.38;10444062;28;20078;-73
2023/04/19 09:06:18;;;;;;;8.35;3.83;;;;;;;14.79;100.00;94319.63;10454586;28;20028;-75
2023/04/19 09:11:19;;;;;;;3.90;2.63;;;;;;;14.54;100.00;94315.63;10440252;28;20039;-73
2023/04/19 09:16:23;;;;;;;8.18;2.83;;;;;;;14.93;100.00;94324.13;10426057;28;20067;-72
2023/04/19 09:21:29;;;;;;;6.20;3.47;;;;;;;15.06;100.00;94314.31;10438918;28;20082;-73
2023/04/19 09:26:30;;;;;;;5.65;2.25;;;;;;;15.10;100.00;94310.69;10432709;28;20506;-72
2023/04/19 09:31:35;;;;;;;7.53;2.35;;;;;;;15.46;100.00;94317.03;10438107;28;20787;-73
2023/04/19 09:36:36;;;;;;;7.40;2.00;;;;;;;15.26;100.00;94324.59;10432745;28;20032;-72
2023/04/19 09:41:53;;;;;;;4.20;2.08;;;;;;;14.95;100.00;94313.81;10406421;28;20016;-73
2023/04/19 09:46:54;;;;;;;6.88;3.30;;;;;;;16.25;100.00;94303.63;10435867;28;20068;-72
2023/04/19 09:51:56;;;;;;;2.42;1.40;;;;;;;18.22;88.55;94285.59;10432411;28;20021;-74
2023/04/19 09:56:56;;;;;;;5.15;2.08;;;;;;;20.21;71.08;94288.25;10439747;28;20043;-72
2023/04/19 10:01:58;;;;;;;2.63;1.50;;;;;;;22.75;52.45;94268.59;10439925;28;20032;-73
2023/04/19 10:06:59;;;;;;;2.47;1.40;;;;;;;23.31;47.90;94256.28;10433950;28;20690;-73
2023/04/19 10:12:00;;;;;;;2.30;1.70;;;;;;;21.72;52.75;94264.09;10420200;28;20031;-73
2023/04/19 10:17:01;;;;;;;3.92;1.42;;;;;;;23.69;47.54;94244.38;10431521;28;20103;-74
2023/04/19 10:22:05;;;;;;;2.03;1.27;;;;;;;25.75;41.64;94241.94;10433869;28;20464;-75
2023/04/19 10:27:11;;;;;;;4.15;1.45;;;;;;;26.29;39.05;94237.94;10413373;28;20021;-74
2023/04/19 10:32:15;;;;;;;1.90;1.15;;;;;;;25.17;39.91;94223.38;10433849;28;20025;-75
2023/04/19 10:37:15;;;;;;;9.07;1.90;;;;;;;25.06;43.44;94240.56;10439783;28;20449;-73
2023/04/19 10:42:16;;;;;;;2.45;1.48;;;;;;;27.57;37.53;94211.88;10415223;28;20069;-74
2023/04/19 10:47:39;;;;;;;1.98;1.20;;;;;;;27.73;35.10;94213.44;10433461;28;20638;-74
2023/04/19 10:52:40;;;;;;;3.25;1.08;;;;;;;28.33;33.81;94197.91;10432204;28;20067;-74
2023/04/19 10:58:03;;;;;;;2.33;1.38;;;;;;;28.20;33.92;94196.75;10438062;28;20116;-73
2023/04/19 11:03:50;;;;;;;5.93;1.00;;;;;;;29.74;33.19;94195.03;10435808;28;20052;-74
2023/04/19 11:08:53;;;;;;;1.83;1.20;;;;;;;29.27;30.96;94191.88;10437129;28;20025;-73
2023/04/19 11:13:55;;;;;;;5.32;1.50;;;;;;;28.48;32.87;94190.31;10440579;28;20820;-73
2023/04/19 11:18:55;;;;;;;2.22;1.45;;;;;;;26.19;36.54;94184.38;10425936;28;20602;-73
2023/04/19 11:24:09;;;;;;;1.85;1.50;;;;;;;21.27;43.57;94191.56;10435392;28;20318;-73
2023/04/19 11:29:09;;;;;;;5.10;1.98;;;;;;;18.36;59.22;94196.31;10438369;28;20451;-73
2023/04/19 11:34:10;;;;;;;4.07;2.60;;;;;;;16.67;65.64;94208.94;10429519;28;20456;-73
2023/04/19 11:39:10;;;;;;;5.32;2.10;;;;;;;16.47;74.92;94205.00;10432384;28;20025;-72
2023/04/19 11:44:21;;;;;;;4.47;2.13;;;;;;;16.86;72.79;94203.13;10431991;28;20029;-73
2023/04/19 11:49:26;;;;;;;3.47;1.92;;;;;;;16.48;80.04;94201.97;10429904;28;20452;-73
2023/04/19 11:54:27;;;;;;;3.40;2.25;;;;;;;16.69;81.42;94198.56;10430865;28;20036;-72
2023/04/19 11:59:28;;;;;;;2.70;1.40;;;;;;;16.89;71.08;94192.41;10440152;28;20395;-73
2023/04/19 12:04:29;;;;;;;4.57;1.80;;;;;;;17.17;72.17;94183.81;10436951;28;20451;-73
2023/04/19 12:09:33;;;;;;;1.98;1.50;;;;;;;17.19;66.07;94180.78;10419338;28;20575;-72
2023/04/19 12:14:34;;;;;;;7.05;2.85;;;;;;;17.75;63.58;94175.13;10432523;28;20391;-73
2023/04/19 12:19:45;;;;;;;110.82;103.97;;;;;;;17.76;65.61;94166.63;10433629;28;20045;-72
2023/04/19 12:24:49;;;;;;;23.90;21.73;;;;;;;17.62;65.44;94168.81;10434458;28;20126;-73
2023/04/19 12:29:50;;;;;;;2.67;1.50;;;;;;;18.17;62.93;94177.81;10431967;28;20025;-69
2023/04/19 12:34:50;;;;;;;6.83;2.17;;;;;;;18.37;69.15;94175.38;10440241;28;20024;-70
2023/04/19 12:39:53;;;;;;;3.47;2.50;;;;;;;17.88;66.42;94163.16;10431885;28;20021;-70
2023/04/19 12:44:54;;;;;;;4.38;2.47;;;;;;;17.81;77.46;94173.78;10431352;28;20029;-70
2023/04/19 12:49:56;;;;;;;4.45;2.83;;;;;;;17.85;65.18;94169.28;10434751;28;20562;-70
2023/04/19 12:54:59;;;;;;;2.92;1.70;;;;;;;17.62;65.41;94176.19;10415539;28;20029;-73
2023/04/19 13:00:09;;;;;;;2.63;2.15;;;;;;;17.14;67.62;94162.75;10421383;28;20481;-73
2023/04/19 13:05:12;;;;;;;6.20;1.52;;;;;;;16.87;70.70;94172.94;10406056;28;20041;-74
2023/04/19 13:10:12;;;;;;;4.75;2.30;;;;;;;16.65;72.85;94190.25;10424331;28;20037;-72
2023/04/19 13:15:13;;;;;;;3.92;1.90;;;;;;;16.50;83.62;94199.72;10404289;28;20052;-73
2023/04/19 13:20:14;;;;;;;4.00;1.83;;;;;;;16.32;98.25;94204.38;10430386;28;20044;-72
2023/04/19 13:25:18;;;;;;;2.97;1.70;;;;;;;15.74;99.96;94217.34;10424135;28;20029;-73
2023/04/19 13:30:18;;;;;;;3.08;1.80;;;;;;;15.23;96.27;94219.66;10430528;28;20447;-74
2023/04/19 13:35:22;;;;;;;2.42;1.92;;;;;;;14.72;100.00;94212.97;10400057;28;20094;-73
2023/04/19 13:40:23;;;;;;;4.25;1.98;;;;;;;14.63;100.00;94208.31;10411564;28;20059;-75
2023/04/19 13:45:23;;;;;;;2.83;1.30;;;;;;;14.56;100.00;94202.53;10432101;28;20107;-74
2023/04/19 13:50:24;;;;;;;3.95;1.90;;;;;;;14.48;100.00;94216.81;10435093;28;20036;-71
2023/04/19 13:55:25;;;;;;;7.43;2.57;;;;;;;14.37;100.00;94218.97;10440821;28;20379;-79
2023/04/19 14:00:26;;;;;;;6.32;2.67;;;;;;;14.08;100.00;94220.25;10420873;28;20286;-81
2023/04/19 14:05:27;;;;;;;9.35;3.10;;;;;;;14.24;100.00;94217.16;10409006;28;20348;-81
2023/04/19 14:10:27;;;;;;;7.00;3.85;;;;;;;14.16;100.00;94221.38;10436397;28;20384;-78
2023/04/19 14:15:28;;;;;;;6.45;3.20;;;;;;;14.07;100.00;94213.22;10441548;28;20488;-79
2023/04/19 14:20:28;;;;;;;53.58;49.70;;;;;;;14.13;100.00;94219.31;10404335;28;20017;-79
2023/04/19 14:25:29;;;;;;;207.50;194.25;;;;;;;14.08;100.00;94214.84;10408187;28;20029;-78
2023/04/19 14:30:30;;;;;;;10.85;9.23;;;;;;;14.15;100.00;94215.19;10408593;28;20066;-79
2023/04/19 14:35:30;;;;;;;4.68;1.92;;;;;;;14.11;100.00;94214.22;10445348;28;20036;-81
2023/04/19 14:40:31;;;;;;;79.75;74.38;;;;;;;14.32;100.00;94209.09;10433404;28;20098;-75
2023/04/19 14:45:31;;;;;;;91.32;85.47;;;;;;;14.30;100.00;94210.50;10438669;28;20033;-79
2023/04/19 14:50:32;;;;;;;3.42;1.55;;;;;;;14.39;100.00;94214.06;10439641;28;20044;-76
2023/04/19 14:55:32;;;;;;;216.23;202.65;;;;;;;14.19;100.00;94220.75;10393609;28;20035;-79
2023/04/19 15:00:33;;;;;;;5.85;2.90;;;;;;;14.11;100.00;94211.50;10440958;28;20017;-79
2023/04/19 15:05:35;;;;;;;249.77;236.05;;;;;;;14.11;100.00;94218.84;10438304;28;20459;-80
2023/04/19 15:10:35;;;;;;;322.10;302.30;;;;;;;14.07;100.00;94224.03;10440064;28;20049;-77
2023/04/19 15:15:36;;;;;;;8.05;1.63;;;;;;;13.93;100.00;94226.00;10439051;28;20135;-77
2023/04/19 15:20:36;;;;;;;495.00;463.65;;;;;;;13.90;100.00;94230.13;10416856;28;20020;-75
2023/04/19 15:25:37;;;;;;;11.30;6.28;;;;;;;13.79;100.00;94223.38;10436000;28;20029;-78
2023/04/19 15:30:37;;;;;;;4.80;2.15;;;;;;;13.60;100.00;94227.00;10437914;28;20083;-83
2023/04/19 15:35:38;;;;;;;9.60;1.75;;;;;;;13.60;100.00;94234.31;10440234;28;20415;-79
2023/04/19 15:40:39;;;;;;;4.07;2.20;;;;;;;13.42;100.00;94230.66;10425690;28;20137;-82
2023/04/19 15:45:39;;;;;;;8.95;1.80;;;;;;;13.20;100.00;94229.47;10410560;28;20151;-82
2023/04/19 15:50:40;;;;;;;3.13;2.00;;;;;;;13.11;100.00;94239.38;10436310;28;20051;-82
2023/04/19 15:55:40;;;;;;;4.20;2.45;;;;;;;12.70;100.00;94250.94;10434074;28;20525;-79
2023/04/19 16:00:41;;;;;;;3.35;1.95;;;;;;;12.47;100.00;94251.63;10439633;28;20524;-78
2023/04/19 16:05:44;;;;;;;4.85;2.42;;;;;;;12.25;100.00;94240.69;10442617;28;20020;-80
2023/04/19 16:10:45;;;;;;;6.38;2.95;;;;;;;12.11;100.00;94244.16;10433029;28;20048;-78
2023/04/19 16:15:46;;;;;;;5.75;3.08;;;;;;;11.94;100.00;94246.56;10443230;28;20049;-79
2023/04/19 16:20:48;;;;;;;7.07;3.85;;;;;;;11.77;100.00;94252.47;10404573;28;20021;-82
2023/04/19 16:25:49;;;;;;;10.93;4.53;;;;;;;11.83;100.00;94259.34;10451621;28;20506;-81
2023/04/19 16:30:49;;;;;;;7.15;4.63;;;;;;;11.80;100.00;94274.22;10443593;28;20230;-82
2023/04/19 16:35:50;;;;;;;6.40;3.90;;;;;;;11.77;100.00;94274.00;10444594;28;20087;-78
2023/04/19 16:40:50;;;;;;;8.47;5.07;;;;;;;11.69;100.00;94270.06;10436611;28;20037;-80
2023/04/19 16:45:51;;;;;;;10.95;5.43;;;;;;;11.74;100.00;94278.06;10442408;28;20143;-79
2023/04/19 16:50:51;;;;;;;11.37;5.70;;;;;;;11.72;100.00;94280.28;10448228;28;20484;-82
2023/04/19 16:55:52;;;;;;;8.95;5.25;;;;;;;11.66;100.00;94275.25;10445550;28;20590;-80
2023/04/19 17:00:52;;;;;;;11.63;6.57;;;;;;;11.32;100.00;94281.63;10410548;28;20021;-78
2023/04/19 17:05:52;;;;;;;11.32;6.47;;;;;;;11.16;100.00;94283.69;10446511;28;20029;-81
2023/04/19 17:10:53;;;;;;;10.60;5.72;;;;;;;11.19;100.00;94283.13;10443332;28;20148;-83
2023/04/19 17:15:54;;;;;;;10.85;5.93;;;;;;;11.32;100.00;94293.19;10428285;28;20048;-81
2023/04/19 17:20:54;;;;;;;14.57;6.28;;;;;;;11.29;100.00;94299.16;10438545;28;20039;-81
2023/04/19 17:25:55;;;;;;;10.60;6.75;;;;;;;11.23;100.00;94295.72;10445144;28;20458;-80
2023/04/19 17:30:55;;;;;;;11.88;7.50;;;;;;;11.20;100.00;94314.31;10428876;28;20576;-81
2023/04/19 17:35:56;;;;;;;13.82;6.68;;;;;;;10.93;100.00;94323.75;10444776;28;20108;-81
2023/04/19 17:40:57;;;;;;;12.70;6.90;;;;;;;10.68;100.00;94335.56;10433430;28;20082;-78
2023/04/19 17:46:00;;;;;;;11.48;6.72;;;;;;;10.61;100.00;94338.56;10441008;28;20033;-83
2023/04/19 17:51:03;;;;;;;13.27;7.55;;;;;;;10.68;100.00;94343.63;10433837;28;20032;-79
2023/04/19 17:56:04;;;;;;;14.75;7.07;;;;;;;10.83;100.00;94356.91;10414220;28;20045;-77
2023/04/19 18:01:07;;;;;;;16.20;7.60;;;;;;;10.73;100.00;94357.00;10411627;28;20044;-75
2023/04/19 18:06:11;;;;;;;22.70;8.82;;;;;;;10.78;100.00;94365.81;10436268;28;20043;-73
2023/04/19 18:11:11;;;;;;;21.00;11.13;;;;;;;10.81;100.00;94371.72;10432115;28;20463;-77
2023/04/19 18:16:12;;;;;;;20.13;10.23;;;;;;;10.86;100.00;94372.47;10421743;28;20424;-75
2023/04/19 18:21:12;;;;;;;15.80;10.77;;;;;;;10.88;100.00;94370.28;10428114;28;20021;-75
2023/04/19 18:26:13;;;;;;;22.58;10.32;;;;;;;11.00;100.00;94387.94;10428016;28;20029;-74
2023/04/19 18:31:13;;;;;;;25.23;11.35;;;;;;;11.00;100.00;94399.50;10397177;28;20044;-71
2023/04/19 18:36:14;;;;;;;14.82;9.80;;;;;;;10.95;100.00;94407.59;10411106;28;20024;-78
2023/04/19 18:41:15;;;;;;;14.98;10.40;;;;;;;11.00;100.00;94404.88;10437484;28;20480;-78
2023/04/19 18:46:17;;;;;;;22.30;11.63;;;;;;;11.04;100.00;94408.59;10420162;28;20039;-87
2023/04/19 18:51:18;;;;;;;21.20;10.73;;;;;;;11.05;100.00;94410.22;10446450;28;20412;-82
2023/04/19 18:56:19;;;;;;;90.88;84.75;;;;;;;11.08;100.00;94414.22;10415576;28;20596;-82
2023/04/19 19:01:23;;;;;;;144.68;134.07;;;;;;;11.05;100.00;94404.84;10451055;28;20028;-85
2023/04/19 19:06:23;;;;;;;23.80;11.15;;;;;;;11.11;100.00;94411.75;10418575;28;20469;-78
2023/04/19 19:11:24;;;;;;;21.90;11.75;;;;;;;11.20;100.00;94420.00;10425665;28;20442;-78
2023/04/19 19:16:24;;;;;;;20.63;11.68;;;;;;;11.24;100.00;94420.25;10440254;28;20519;-81
2023/04/19 19:21:27;;;;;;;92.53;85.30;;;;;;;10.98;100.00;94430.44;10435578;28;20742;-78
2023/04/19 19:26:28;;;;;;;17.92;12.10;;;;;;;10.72;100.00;94431.47;10446550;28;20452;-78
2023/04/19 19:31:36;;;;;;;278.27;258.27;;;;;;;10.64;100.00;94450.09;10432088;28;20050;-79
2023/04/19 19:36:37;;;;;;;481.92;448.10;;;;;;;10.33;100.00;94451.06;10421743;28;20393;-78
2023/04/19 19:41:41;;;;;;;361.73;331.58;;;;;;;10.14;100.00;94442.84;10432988;28;20095;-74
2023/04/19 19:46:41;;;;;;;44.45;19.70;;;;;;;9.99;100.00;94461.72;10434921;28;20400;-73
2023/04/19 19:51:42;;;;;;;26.33;14.23;;;;;;;9.96;100.00;94455.00;10436234;28;20060;-77
2023/04/19 19:56:42;;;;;;;32.83;17.70;;;;;;;9.90;100.00;94464.19;10437367;28;20044;-76
2023/04/19 20:01:45;;;;;;;31.67;17.58;;;;;;;9.59;100.00;94472.34;10432014;28;20428;-79
2023/04/19 20:06:46;;;;;;;29.85;15.70;;;;;;;9.48;100.00;94478.81;10442693;28;20037;-81
2023/04/19 20:11:46;;;;;;;75.60;69.30;;;;;;;9.39;100.00;94471.31;10439703;28;20017;-76
2023/04/19 20:16:46;;;;;;;492.90;439.97;;;;;;;9.14;100.00;94471.34;10437691;28;20049;-78
2023/04/19 20:21:47;;;;;;;256.42;234.73;;;;;;;9.07;100.00;94469.78;10420518;28;20267;-74
2023/04/19 20:26:47;;;;;;;37.67;19.90;;;;;;;9.03;100.00;94474.06;10433559;28;20025;-75
2023/04/19 20:31:48;;;;;;;555.03;503.80;;;;;;;8.97;100.00;94458.25;10427486;28;20367;-71
2023/04/19 20:36:48;;;;;;;33.78;17.70;;;;;;;8.88;100.00;94466.81;10433612;28;20491;-74
2023/04/19 20:41:50;;;;;;;35.63;18.70;;;;;;;8.85;100.00;94467.38;10430595;28;20487;-73
2023/04/19 20:46:50;;;;;;;32.20;17.65;;;;;;;8.79;100.00;94456.91;10434941;28;20094;-75
2023/04/19 20:51:51;;;;;;;29.20;16.45;;;;;;;8.78;100.00;94452.66;10435620;28;20036;-77
2023/04/19 20:56:52;;;;;;;32.22;18.42;;;;;;;8.35;100.00;94458.22;10395142;28;20025;-74
2023/04/19 21:01:53;;;;;;;38.85;20.50;;;;;;;8.41;100.00;94461.69;10438746;28;20075;-73
2023/04/19 21:06:53;;;;;;;27.47;18.27;;;;;;;8.31;100.00;94455.25;10420019;28;20025;-71
2023/04/19 21:11:54;;;;;;;34.92;29.80;;;;;;;8.22;100.00;94459.53;10414014;28;20882;-71
2023/04/19 21:16:54;;;;;;;353.23;328.00;;;;;;;8.27;100.00;94456.03;10408542;28;20049;-71
2023/04/19 21:21:55;;;;;;;31.75;16.60;;;;;;;8.21;100.00;94453.34;10378118;28;20025;-73
2023/04/19 21:26:56;;;;;;;30.98;16.42;;;;;;;8.23;100.00;94454.97;10423821;28;20028;-72
2023/04/19 21:31:57;;;;;;;39.25;31.65;;;;;;;8.28;100.00;94457.66;10429376;28;20075;-72
2023/04/19 21:36:57;;;;;;;565.50;509.33;;;;;;;8.11;100.00;94455.22;10430662;28;20116;-72
2023/04/19 21:41:58;;;;;;;22.67;14.05;;;;;;;8.21;100.00;94460.59;10398215;28;20033;-71
2023/04/19 21:46:58;;;;;;;27.60;15.40;;;;;;;8.37;100.00;94467.59;10417564;28;20047;-71
2023/04/19 21:51:58;;;;;;;18.93;12.97;;;;;;;8.38;100.00;94465.69;10430013;28;20025;-72
2023/04/19 21:57:00;;;;;;;21.38;13.43;;;;;;;8.28;100.00;94463.03;10430037;28;20754;-71
2023/04/19 22:02:00;;;;;;;21.60;13.30;;;;;;;8.37;100.00;94456.06;10429693;28;20244;-71
2023/04/19 22:07:01;;;;;;;22.10;12.02;;;;;;;8.43;100.00;94459.53;10429513;28;20032;-71
2023/04/19 22:12:02;;;;;;;18.63;11.98;;;;;;;8.28;100.00;94453.09;10429279;28;20025;-71
2023/04/19 22:17:04;;;;;;;18.15;11.65;;;;;;;8.23;100.00;94450.41;10428935;28;20129;-71
2023/04/19 22:22:06;;;;;;;19.13;12.90;;;;;;;8.32;100.00;94454.19;10411858;28;20473;-72
2023/04/19 22:27:06;;;;;;;16.95;10.32;;;;;;;8.41;100.00;94451.78;10428771;28;20677;-72
2023/04/19 22:32:07;;;;;;;18.30;10.90;;;;;;;8.48;100.00;94443.50;10428170;28;20029;-71
2023/04/19 22:37:07;;;;;;;21.10;11.20;;;;;;;8.47;100.00;94445.41;10428342;28;20118;-71
2023/04/19 22:42:08;;;;;;;20.48;11.82;;;;;;;8.55;100.00;94449.41;10428033;28;20033;-72
2023/04/19 22:47:13;;;;;;;27.65;11.68;;;;;;;8.69;100.00;94442.47;10426825;28;20039;-71
2023/04/19 22:52:17;;;;;;;20.02;11.70;;;;;;;8.71;100.00;94434.94;10427465;28;20052;-72
2023/04/19 22:57:21;;;;;;;17.45;11.73;;;;;;;8.79;100.00;94430.13;10411577;28;20514;-72
2023/04/19 23:02:28;;;;;;;18.98;10.88;;;;;;;8.80;100.00;94431.72;10427615;28;20031;-71
2023/04/19 23:07:29;;;;;;;19.50;11.32;;;;;;;8.82;100.00;94426.88;10409253;28;20025;-71